Cord, Arkansas
Current Conditions -  °F | °C
As of 3:56 AM on Friday 31 Oct 2014 (Local Time) from KM19 Reporting Station
Clear Clear  
Wind Chill: 10°   Ceiling: Unl
Heat Index: 10°   Visibility: 10mi
Dew Point:   Wind: 10mph
Humidity: 83%   Direction: 320°NW
Pressure: 30.04"   Gusts: NA
Location:  35.81°N, 91.34°W
Report Text: KM19 310856Z AUTO 32009KT 10SM CLR 10/07 A3004 RMK AO2 51006 T01000072 SLP170
Loading
Personal Weather Stations






























Interactive Weather Map
Tropical Storm Tracking
New forecast layout! Learn more

10-Day Weather Forecast

Advertisements
Track Severe Weather on mobile